Time;durP1;ratioP1;P1;durP2;ratioP2;P2;SDS_P1;SDS_P2;PMS_P1;PMS_P2;Temp;Humidity;BMP_temperature;BMP_pressure;BME280_temperature;BME280_humidity;BME280_pressure;Samples;Min_cycle;Max_cycle;Signal;HPM_P1;HPM_P2
2021/08/17 00:03:03;;;;;;;4.78;2.80;;;;;;;16.72;55.97;101823.25;10493855;28;20597;-78
2021/08/17 00:08:04;;;;;;;15.73;3.25;;;;;;;16.30;57.00;101759.00;10491918;28;20041;-79
2021/08/17 00:13:04;;;;;;;8.00;3.63;;;;;;;15.76;56.41;101665.44;10491646;28;20064;-79
2021/08/17 00:18:04;;;;;;;7.55;2.33;;;;;;;16.65;57.11;101811.47;10456026;28;20162;-79
2021/08/17 00:23:06;;;;;;;10.13;4.28;;;;;;;16.44;57.66;101798.94;10498172;28;20411;-78
2021/08/17 00:28:06;;;;;;;7.05;2.80;;;;;;;16.49;57.39;101752.63;10481016;28;20105;-79
2021/08/17 00:33:07;;;;;;;4.45;2.90;;;;;;;16.85;57.12;101767.69;10480221;28;20542;-79
2021/08/17 00:38:07;;;;;;;5.00;2.60;;;;;;;17.43;57.13;101797.66;10498414;28;20028;-78
2021/08/17 00:43:10;;;;;;;5.30;3.40;;;;;;;17.66;56.55;101788.00;10497471;28;20028;-79
2021/08/17 00:48:10;;;;;;;6.45;3.45;;;;;;;17.62;57.22;101782.13;10496971;28;20036;-79
2021/08/17 00:53:12;;;;;;;4.18;3.58;;;;;;;17.76;56.97;101782.84;10496971;28;20068;-78
2021/08/17 00:58:12;;;;;;;10.68;3.22;;;;;;;17.83;57.56;101775.44;10478350;28;20044;-79
2021/08/17 01:03:12;;;;;;;4.50;3.13;;;;;;;17.96;57.14;101771.72;10496781;28;20459;-79
2021/08/17 01:08:13;;;;;;;17.77;4.90;;;;;;;18.01;56.89;101782.03;10496247;28;20135;-79
2021/08/17 01:13:13;;;;;;;5.53;3.97;;;;;;;17.94;56.82;101770.31;10477824;28;20127;-79
2021/08/17 01:18:14;;;;;;;5.18;3.33;;;;;;;17.98;57.51;101785.22;10476739;28;20475;-78
2021/08/17 01:23:17;;;;;;;6.65;2.47;;;;;;;17.82;58.57;101757.31;10461047;28;20138;-79
2021/08/17 01:28:19;;;;;;;5.43;3.00;;;;;;;18.04;59.04;101814.47;10478038;28;20046;-79
2021/08/17 01:33:19;;;;;;;11.50;3.63;;;;;;;18.15;57.28;101800.00;10477342;28;20119;-78
2021/08/17 01:38:20;;;;;;;2.17;2.08;;;;;;;18.20;56.77;101802.09;10494882;28;20175;-79
2021/08/17 01:43:20;;;;;;;3.95;2.30;;;;;;;17.90;56.52;101748.00;10475042;28;20129;-79
2021/08/17 01:48:23;;;;;;;8.30;3.72;;;;;;;18.12;57.35;101797.72;10490021;28;20099;-78
2021/08/17 01:53:27;;;;;;;5.95;4.60;;;;;;;17.82;57.12;101732.66;10471325;28;20044;-79
2021/08/17 01:58:27;;;;;;;4.10;3.08;;;;;;;18.15;56.78;101790.97;10453273;28;20032;-79
2021/08/17 02:03:27;;;;;;;5.43;3.85;;;;;;;17.73;56.70;101725.75;10470522;28;20126;-78
2021/08/17 02:08:28;;;;;;;15.65;4.53;;;;;;;18.06;57.17;101785.78;10496482;28;20119;-79
2021/08/17 02:13:29;;;;;;;6.10;3.83;;;;;;;17.23;57.21;101662.81;10495609;28;20068;-79
2021/08/17 02:18:30;;;;;;;5.03;3.38;;;;;;;18.06;56.92;101828.78;10475572;28;20434;-79
2021/08/17 02:23:31;;;;;;;10.07;5.43;;;;;;;18.05;57.39;101786.00;10458741;28;20045;-79
2021/08/17 02:28:32;;;;;;;14.18;5.03;;;;;;;18.04;57.49;101771.47;10493631;28;20032;-78
2021/08/17 02:33:32;;;;;;;7.50;5.22;;;;;;;18.19;57.47;101782.06;10458425;28;20037;-79
2021/08/17 02:38:33;;;;;;;13.13;5.82;;;;;;;18.38;57.82;101768.34;10493482;28;20046;-78
2021/08/17 02:43:34;;;;;;;22.77;5.28;;;;;;;18.36;57.79;101769.44;10492912;28;20028;-79
2021/08/17 02:48:34;;;;;;;9.90;5.25;;;;;;;18.45;58.36;101777.38;10474489;28;20040;-79
2021/08/17 02:53:34;;;;;;;12.00;6.30;;;;;;;18.44;58.33;101772.91;10493936;28;20040;-78
2021/08/17 02:58:35;;;;;;;7.65;5.35;;;;;;;18.32;58.63;101767.38;10493044;28;20040;-78
2021/08/17 03:03:35;;;;;;;23.40;8.20;;;;;;;18.25;58.89;101761.97;10492955;28;20457;-79
2021/08/17 03:08:36;;;;;;;12.80;7.88;;;;;;;18.21;58.45;101777.19;10492764;28;20048;-79
2021/08/17 03:13:36;;;;;;;14.73;6.65;;;;;;;18.10;58.61;101769.72;10474778;28;20113;-79
2021/08/17 03:18:37;;;;;;;11.73;6.82;;;;;;;17.80;59.13;101737.53;10491610;28;20431;-79
2021/08/17 03:23:37;;;;;;;15.57;7.40;;;;;;;17.85;60.20;101762.34;10490407;28;20057;-79
2021/08/17 03:28:38;;;;;;;19.98;8.00;;;;;;;17.71;60.60;101759.91;10454028;28;20463;-80
2021/08/17 03:33:38;;;;;;;27.02;7.68;;;;;;;17.11;60.24;101670.06;10469505;28;20041;-79
2021/08/17 03:38:39;;;;;;;34.65;9.15;;;;;;;16.73;60.68;101646.31;10487286;28;20075;-79
2021/08/17 03:43:39;;;;;;;15.23;7.45;;;;;;;17.43;61.10;101750.25;10452836;28;20029;-79
2021/08/17 03:48:39;;;;;;;20.30;7.97;;;;;;;17.34;61.08;101741.47;10470837;28;20048;-79
2021/08/17 03:53:40;;;;;;;16.95;8.63;;;;;;;17.28;60.74;101723.19;10489916;28;20045;-79
2021/08/17 03:58:40;;;;;;;14.85;6.70;;;;;;;17.26;61.27;101749.97;10479724;28;20524;-79
2021/08/17 04:03:41;;;;;;;14.23;7.50;;;;;;;17.33;61.39;101750.75;10496720;28;20189;-80
2021/08/17 04:08:41;;;;;;;18.02;8.15;;;;;;;16.70;61.28;101650.31;10474775;28;20106;-79
2021/08/17 04:13:42;;;;;;;19.17;8.77;;;;;;;17.42;61.48;101779.53;10457369;28;20128;-79
2021/08/17 04:18:42;;;;;;;13.77;8.68;;;;;;;16.78;61.48;101634.72;10491785;28;20117;-79
2021/08/17 04:23:43;;;;;;;14.80;8.85;;;;;;;17.71;61.83;101765.41;10493421;28;20064;-79
2021/08/17 04:28:43;;;;;;;22.05;9.90;;;;;;;17.68;61.47;101739.31;10496208;28;20483;-79
2021/08/17 04:33:43;;;;;;;12.27;8.43;;;;;;;18.00;61.18;101755.69;10493951;28;20138;-79
2021/08/17 04:38:44;;;;;;;11.32;7.30;;;;;;;18.16;60.79;101765.25;10495008;28;20454;-79
2021/08/17 04:43:46;;;;;;;12.27;8.57;;;;;;;18.11;60.93;101736.59;10497465;28;20089;-80
2021/08/17 04:48:49;;;;;;;18.77;9.20;;;;;;;18.04;61.40;101715.81;10496918;28;20075;-78
2021/08/17 04:53:49;;;;;;;17.67;10.35;;;;;;;17.87;61.48;101680.78;10496902;28;20050;-79
2021/08/17 04:58:51;;;;;;;26.42;12.68;;;;;;;18.30;62.00;101748.41;10478827;28;20123;-79
2021/08/17 05:03:51;;;;;;;22.83;12.55;;;;;;;18.06;62.01;101689.00;10479066;28;20102;-79
2021/08/17 05:08:51;;;;;;;14.02;9.07;;;;;;;18.39;61.48;101735.22;10475914;28;20098;-78
2021/08/17 05:13:52;;;;;;;22.23;8.65;;;;;;;18.48;61.78;101739.34;10517125;28;20117;-78
2021/08/17 05:18:52;;;;;;;25.27;9.90;;;;;;;18.48;61.35;101754.97;10514387;28;20048;-79
2021/08/17 05:23:56;;;;;;;24.13;9.10;;;;;;;18.54;61.62;101746.66;10532538;28;20486;-78
2021/08/17 05:28:56;;;;;;;16.23;9.27;;;;;;;18.59;61.38;101737.72;10531772;28;20058;-78
2021/08/17 05:33:56;;;;;;;26.00;10.90;;;;;;;18.58;61.73;101738.81;10512842;28;20067;-79
2021/08/17 05:38:57;;;;;;;10.45;6.57;;;;;;;18.63;61.29;101747.16;10531591;28;20079;-78
2021/08/17 05:43:57;;;;;;;26.40;9.25;;;;;;;18.58;61.69;101733.31;10512364;28;20052;-79
2021/08/17 05:48:58;;;;;;;26.95;8.50;;;;;;;18.63;61.95;101735.34;10512860;28;20036;-79
2021/08/17 05:53:58;;;;;;;9.57;5.80;;;;;;;18.70;62.00;101730.63;10531009;28;20201;-78
2021/08/17 05:58:58;;;;;;;10.93;7.75;;;;;;;18.87;61.81;101741.84;10512445;28;20078;-79
2021/08/17 06:03:59;;;;;;;18.92;7.80;;;;;;;18.89;61.42;101736.94;10512005;28;20115;-80
2021/08/17 06:08:59;;;;;;;18.33;9.23;;;;;;;18.85;61.29;101728.31;10532524;28;20039;-78
2021/08/17 06:14:00;;;;;;;24.20;9.05;;;;;;;19.18;60.72;101738.00;10533547;28;20206;-79
2021/08/17 06:19:00;;;;;;;12.30;5.90;;;;;;;19.29;61.87;101743.50;10514213;28;20421;-79
2021/08/17 06:24:01;;;;;;;19.60;7.28;;;;;;;19.32;60.99;101738.63;10534103;28;20052;-79
2021/08/17 06:29:02;;;;;;;16.10;6.60;;;;;;;18.64;60.18;101616.34;10535420;28;20032;-79
2021/08/17 06:34:02;;;;;;;15.38;6.93;;;;;;;19.29;59.98;101643.81;10516665;28;20164;-78
2021/08/17 06:39:06;;;;;;;19.33;6.60;;;;;;;20.78;58.97;101771.75;10533727;28;20063;-79
2021/08/17 06:44:07;;;;;;;12.02;6.38;;;;;;;20.60;58.29;101748.81;10516341;28;20123;-79
2021/08/17 06:49:07;;;;;;;10.02;6.10;;;;;;;20.25;58.70;101723.25;10534175;28;20032;-78
2021/08/17 06:54:07;;;;;;;9.90;5.75;;;;;;;20.19;58.79;101755.31;10516707;28;20056;-79
2021/08/17 06:59:08;;;;;;;7.35;5.20;;;;;;;19.74;60.56;101740.25;10533925;28;20074;-79
2021/08/17 07:04:08;;;;;;;27.70;8.02;;;;;;;19.67;59.42;101719.47;10515223;28;20040;-78
2021/08/17 07:09:09;;;;;;;6.93;5.15;;;;;;;19.85;58.67;101737.78;10534472;28;20134;-79
2021/08/17 07:14:09;;;;;;;17.83;5.68;;;;;;;19.62;59.75;101731.16;10516997;28;20032;-79
2021/08/17 07:19:09;;;;;;;6.10;4.95;;;;;;;19.73;59.80;101729.53;10534810;28;20115;-78
2021/08/17 07:24:10;;;;;;;12.82;6.03;;;;;;;19.75;60.45;101727.38;10516076;28;20112;-78
2021/08/17 07:29:10;;;;;;;7.63;5.05;;;;;;;19.57;60.56;101702.72;10538496;28;20036;-78
2021/08/17 07:34:11;;;;;;;9.13;4.93;;;;;;;19.92;59.55;101724.75;10546109;28;20051;-79
2021/08/17 07:39:14;;;;;;;15.95;4.82;;;;;;;20.57;58.75;101734.69;10525491;28;20051;-78
2021/08/17 07:44:16;;;;;;;8.75;5.05;;;;;;;20.63;56.66;101744.72;10542994;28;20463;-79
2021/08/17 07:49:16;;;;;;;8.38;4.28;;;;;;;20.80;56.05;101698.00;10542364;28;20424;-78
2021/08/17 07:54:16;;;;;;;6.60;4.63;;;;;;;21.14;55.49;101729.19;10524402;28;20114;-79
2021/08/17 07:59:17;;;;;;;9.07;3.85;;;;;;;20.85;55.36;101745.72;10524288;28;20558;-78
2021/08/17 08:04:17;;;;;;;12.32;3.55;;;;;;;19.76;57.73;101635.59;10505696;28;20055;-79
2021/08/17 08:09:18;;;;;;;4.55;3.50;;;;;;;20.54;56.28;101741.53;10523002;28;20094;-79
2021/08/17 08:14:18;;;;;;;3.80;3.45;;;;;;;20.31;57.12;101741.56;10540695;28;20032;-78
2021/08/17 08:19:19;;;;;;;9.40;4.75;;;;;;;20.30;55.91;101726.13;10522369;28;20468;-79
2021/08/17 08:24:19;;;;;;;10.73;4.50;;;;;;;19.93;57.65;101724.50;10539563;28;20070;-79
2021/08/17 08:29:19;;;;;;;12.50;4.70;;;;;;;19.90;56.53;101735.13;10540469;28;20126;-79
2021/08/17 08:34:20;;;;;;;19.42;4.25;;;;;;;19.34;57.18;101648.63;10539093;28;20039;-79
2021/08/17 08:39:20;;;;;;;5.65;3.25;;;;;;;20.13;57.78;101772.78;10538795;28;20464;-79
2021/08/17 08:44:21;;;;;;;65.68;11.23;;;;;;;19.93;57.99;101760.22;10519042;28;20117;-79
2021/08/17 08:49:21;;;;;;;6.75;3.92;;;;;;;19.59;56.60;101742.63;10519327;28;20474;-78
2021/08/17 08:54:22;;;;;;;2.92;2.63;;;;;;;19.82;57.00;101774.00;10520266;28;20114;-79
2021/08/17 08:59:22;;;;;;;13.60;3.78;;;;;;;19.67;57.23;101764.28;10537784;28;20051;-79
2021/08/17 09:04:24;;;;;;;2.97;2.67;;;;;;;18.83;60.17;101664.63;10538069;28;20036;-78
2021/08/17 09:09:24;;;;;;;3.47;3.17;;;;;;;18.76;57.90;101661.97;10538474;28;20310;-79
2021/08/17 09:14:31;;;;;;;6.03;2.78;;;;;;;19.65;58.24;101747.19;10519207;28;20048;-79
2021/08/17 09:19:33;;;;;;;;;;;;;;;19.62;58.43;101744.03;10537627;28;20047;-79
2021/08/17 09:24:34;;;;;;;5.95;2.92;;;;;;;19.53;57.89;101746.31;10537160;28;19951;-79
2021/08/17 09:29:39;;;;;;;5.38;3.40;;;;;;;19.26;57.59;101697.28;10516623;28;20032;-79
2021/08/17 09:34:41;;;;;;;6.00;2.58;;;;;;;19.39;58.38;101764.06;10500239;28;20039;-79
2021/08/17 09:39:49;;;;;;;8.88;4.13;;;;;;;18.43;60.98;101741.09;10517653;28;20054;-78
2021/08/17 09:45:15;;;;;;;4.28;2.67;;;;;;;18.36;61.35;101761.19;10536474;28;20443;-77
2021/08/17 09:50:21;;;;;;;6.27;3.13;;;;;;;18.09;61.90;101748.84;10518908;28;20468;-77
2021/08/17 09:55:22;;;;;;;6.72;4.00;;;;;;;17.92;63.02;101755.97;10531845;28;20031;-76
2021/08/17 10:00:22;;;;;;;4.20;3.13;;;;;;;17.77;64.28;101746.22;10532364;28;20036;-75
2021/08/17 10:05:23;;;;;;;7.90;4.55;;;;;;;17.70;64.61;101715.25;10497567;28;20032;-75
2021/08/17 10:10:24;;;;;;;17.05;5.10;;;;;;;18.09;64.79;101718.69;10512400;28;20199;-75
2021/08/17 10:15:25;;;;;;;6.35;4.78;;;;;;;17.79;63.98;101681.06;10534429;28;20127;-75
2021/08/17 10:20:33;;;;;;;9.70;5.22;;;;;;;18.19;64.70;101746.44;10510362;28;20039;-75
2021/08/17 10:25:47;;;;;;;5.70;5.20;;;;;;;17.92;65.69;101737.63;10510702;28;20044;-75
2021/08/17 10:30:47;;;;;;;8.15;6.47;;;;;;;17.81;66.72;101728.25;10512009;28;20047;-75
2021/08/17 10:35:47;;;;;;;11.18;5.72;;;;;;;17.63;67.67;101729.00;10512594;28;20036;-76
2021/08/17 10:40:51;;;;;;;6.40;5.00;;;;;;;17.79;67.74;101729.53;10530709;28;20522;-76
2021/08/17 10:46:05;;;;;;;7.90;4.45;;;;;;;17.69;68.73;101721.81;10530824;28;20074;-76
2021/08/17 10:51:08;;;;;;;8.85;3.40;;;;;;;17.54;68.33;101681.06;10531115;28;20119;-76
2021/08/17 10:56:41;;;;;;;7.35;5.05;;;;;;;17.87;68.42;101732.84;10529927;28;20093;-77
2021/08/17 11:01:42;;;;;;;10.52;4.38;;;;;;;17.84;68.04;101705.91;10527310;28;20067;-76
2021/08/17 11:06:56;;;;;;;8.27;3.92;;;;;;;17.16;67.89;101578.00;10530155;28;20040;-76
2021/08/17 11:12:10;;;;;;;11.85;4.88;;;;;;;17.31;67.46;101596.81;10513650;28;20036;-76
2021/08/17 11:17:12;;;;;;;5.80;4.32;;;;;;;18.11;67.72;101711.91;10512112;28;20042;-77
2021/08/17 11:22:26;;;;;;;4.07;2.92;;;;;;;17.98;68.49;101701.09;10512351;28;20052;-76
2021/08/17 11:27:38;;;;;;;4.55;3.33;;;;;;;18.11;68.14;101731.09;10530195;28;20043;-76
2021/08/17 11:32:45;;;;;;;8.90;3.80;;;;;;;18.09;67.70;101694.00;10496284;28;20093;-76
2021/08/17 11:37:50;;;;;;;3.17;2.50;;;;;;;18.01;68.39;101705.28;10512294;28;20372;-77
2021/08/17 11:42:55;;;;;;;11.00;3.83;;;;;;;18.15;68.75;101712.28;10530489;28;20067;-77
2021/08/17 11:47:57;;;;;;;12.75;2.50;;;;;;;18.40;67.76;101725.09;10528510;28;20444;-76
2021/08/17 11:53:02;;;;;;;4.00;2.90;;;;;;;18.28;68.29;101695.72;10494630;28;20028;-78
2021/08/17 11:58:07;;;;;;;2.80;2.22;;;;;;;18.33;67.91;101706.81;10512977;28;20038;-77
2021/08/17 12:03:09;;;;;;;3.75;3.17;;;;;;;18.28;67.33;101659.22;10530042;28;20039;-77
2021/08/17 12:08:11;;;;;;;3.40;2.78;;;;;;;18.17;67.85;101682.75;10512651;28;20043;-77
2021/08/17 12:13:12;;;;;;;6.47;2.65;;;;;;;17.84;68.64;101683.97;10532407;28;20066;-77
2021/08/17 12:18:15;;;;;;;3.33;3.08;;;;;;;17.25;68.90;101562.13;10539599;28;20042;-77
2021/08/17 12:23:31;;;;;;;5.20;3.92;;;;;;;17.96;68.99;101648.41;10542165;28;20052;-77
2021/08/17 12:28:33;;;;;;;7.63;5.40;;;;;;;18.50;68.12;101665.88;10523785;28;20047;-77
2021/08/17 12:33:33;;;;;;;7.28;5.40;;;;;;;18.69;68.78;101672.16;10524437;28;20106;-77
2021/08/17 12:38:38;;;;;;;6.97;2.70;;;;;;;19.00;67.74;101620.88;10541494;28;20498;-77
2021/08/17 12:43:43;;;;;;;3.85;2.08;;;;;;;18.90;67.19;101593.16;10541616;28;20032;-77
2021/08/17 12:48:44;;;;;;;2.88;1.90;;;;;;;18.79;68.42;101653.28;10541420;28;20024;-78
2021/08/17 12:53:45;;;;;;;4.80;2.38;;;;;;;18.77;68.40;101662.81;10541992;28;20146;-77
2021/08/17 12:58:46;;;;;;;1.40;1.30;;;;;;;17.75;68.87;101520.94;10522820;28;20070;-78
2021/08/17 13:03:46;;;;;;;1.27;1.25;;;;;;;18.46;69.77;101642.72;10522921;28;20044;-77
2021/08/17 13:08:47;;;;;;;1.83;1.10;;;;;;;18.42;68.97;101585.84;10522414;28;20468;-77
2021/08/17 13:13:49;;;;;;;2.20;1.63;;;;;;;18.94;68.88;101608.09;10541481;28;20089;-78
2021/08/17 13:18:50;;;;;;;2.05;1.80;;;;;;;19.00;67.73;101572.28;10539772;28;20344;-78
2021/08/17 13:23:51;;;;;;;2.45;1.02;;;;;;;19.21;67.85;101641.44;10521008;28;20064;-78
2021/08/17 13:28:51;;;;;;;2.05;1.35;;;;;;;19.23;67.93;101631.88;10520509;28;20039;-78
2021/08/17 13:33:51;;;;;;;5.53;1.33;;;;;;;17.96;67.35;101428.34;10538554;28;20131;-78
2021/08/17 13:38:52;;;;;;;1.65;1.40;;;;;;;19.38;67.47;101625.09;10537569;28;20040;-79
2021/08/17 13:43:52;;;;;;;1.45;1.35;;;;;;;19.21;68.03;101613.97;10537489;28;20138;-78
2021/08/17 13:48:53;;;;;;;6.18;1.25;;;;;;;19.25;67.98;101618.75;10536732;28;20090;-77
2021/08/17 13:53:54;;;;;;;5.50;2.53;;;;;;;19.18;67.37;101589.75;10537101;28;20040;-77
2021/08/17 13:58:54;;;;;;;6.88;1.63;;;;;;;19.32;67.81;101613.13;10536692;28;20036;-77
2021/08/17 14:03:55;;;;;;;8.30;1.92;;;;;;;19.38;67.52;101589.38;10536774;28;20109;-77
2021/08/17 14:08:56;;;;;;;0.95;0.95;;;;;;;19.54;66.90;101583.16;10518613;28;20040;-77
2021/08/17 14:13:59;;;;;;;11.55;2.03;;;;;;;19.51;66.71;101594.63;10518051;28;20050;-77
2021/08/17 14:19:00;;;;;;;1.02;0.90;;;;;;;19.34;67.01;101612.91;10516818;28;20474;-76
2021/08/17 14:24:00;;;;;;;2.17;1.27;;;;;;;19.33;67.12;101605.72;10500654;28;20087;-76
2021/08/17 14:29:01;;;;;;;1.48;1.38;;;;;;;18.68;66.52;101533.31;10500771;28;20471;-76
2021/08/17 14:34:01;;;;;;;1.85;0.73;;;;;;;19.23;66.39;101620.06;10533513;28;20070;-77
2021/08/17 14:39:05;;;;;;;0.73;0.70;;;;;;;19.12;67.46;101618.97;10513883;28;20056;-77
2021/08/17 14:44:05;;;;;;;1.88;1.33;;;;;;;18.96;67.42;101592.22;10532669;28;20028;-77
2021/08/17 14:49:06;;;;;;;9.20;1.13;;;;;;;19.17;67.25;101623.75;10531558;28;20055;-76
2021/08/17 14:54:06;;;;;;;0.85;0.85;;;;;;;19.17;67.03;101610.84;10511899;28;20031;-77
2021/08/17 14:59:06;;;;;;;1.17;0.82;;;;;;;19.53;66.29;101567.75;10512014;28;20032;-77
2021/08/17 15:04:07;;;;;;;0.82;0.82;;;;;;;20.02;66.13;101606.75;10530377;28;20067;-77
2021/08/17 15:09:07;;;;;;;8.30;1.63;;;;;;;20.26;65.65;101598.41;10511625;28;20066;-78
2021/08/17 15:14:08;;;;;;;1.73;1.00;;;;;;;20.00;64.92;101542.91;10528996;28;20455;-78
2021/08/17 15:19:08;;;;;;;1.27;1.00;;;;;;;20.19;65.37;101601.31;10530497;28;20107;-78
2021/08/17 15:24:09;;;;;;;1.70;1.55;;;;;;;19.84;65.10;101538.19;10495259;28;20055;-76
2021/08/17 15:29:09;;;;;;;0.77;0.77;;;;;;;20.28;65.30;101588.00;10511360;28;20066;-77
2021/08/17 15:34:09;;;;;;;2.05;1.75;;;;;;;20.33;65.57;101586.19;10528485;28;20047;-76
2021/08/17 15:39:10;;;;;;;3.88;1.35;;;;;;;20.32;65.48;101583.69;10509819;28;20044;-76
2021/08/17 15:44:10;;;;;;;1.23;1.17;;;;;;;19.99;65.66;101577.00;10512574;28;20043;-77
2021/08/17 15:49:11;;;;;;;1.25;1.15;;;;;;;19.81;66.17;101596.41;10510146;28;20580;-76
2021/08/17 15:54:11;;;;;;;7.88;5.10;;;;;;;19.72;66.08;101591.28;10517701;28;20097;-77
2021/08/17 15:59:11;;;;;;;326.35;263.92;;;;;;;20.00;65.64;101592.41;10518866;28;20100;-77
2021/08/17 16:04:12;;;;;;;9.43;8.60;;;;;;;20.05;65.33;101589.78;10517539;28;20040;-77
2021/08/17 16:09:12;;;;;;;6.47;3.03;;;;;;;19.29;65.90;101492.78;10536527;28;20432;-77
2021/08/17 16:14:13;;;;;;;9.32;8.27;;;;;;;18.91;65.87;101452.13;10536334;28;20122;-76
2021/08/17 16:19:13;;;;;;;2.40;2.30;;;;;;;19.56;66.35;101596.63;10535413;28;20029;-77
2021/08/17 16:24:14;;;;;;;5.97;3.65;;;;;;;19.15;66.94;101514.19;10516919;28;20055;-77
2021/08/17 16:29:16;;;;;;;33.63;19.75;;;;;;;18.83;66.59;101444.25;10500179;28;20465;-76
2021/08/17 16:34:16;;;;;;;2.58;2.10;;;;;;;19.58;67.05;101587.09;10517489;28;20210;-76
2021/08/17 16:39:16;;;;;;;2.70;1.88;;;;;;;19.69;66.38;101585.44;10534609;28;20516;-76
2021/08/17 16:44:17;;;;;;;2.15;1.95;;;;;;;19.63;66.83;101578.97;10534346;28;20141;-76
2021/08/17 16:49:18;;;;;;;37.20;22.02;;;;;;;19.23;66.31;101510.22;10534348;28;20099;-76
2021/08/17 16:54:18;;;;;;;326.63;239.85;;;;;;;19.37;66.32;101521.78;10533872;28;20083;-76
2021/08/17 16:59:19;;;;;;;54.65;33.13;;;;;;;19.68;66.70;101584.59;10497908;28;20121;-76
2021/08/17 17:04:19;;;;;;;54.25;35.47;;;;;;;18.92;66.09;101449.16;10514454;28;20171;-77
2021/08/17 17:09:20;;;;;;;15.20;6.57;;;;;;;18.67;66.43;101418.34;10533676;28;20459;-76
2021/08/17 17:14:20;;;;;;;54.65;44.40;;;;;;;19.44;66.87;101597.50;10533548;28;20036;-76
2021/08/17 17:19:21;;;;;;;1.60;1.50;;;;;;;17.92;68.40;101438.94;10497482;28;20494;-76
2021/08/17 17:24:21;;;;;;;3.22;1.38;;;;;;;18.87;67.99;101586.25;10497693;28;20087;-76
2021/08/17 17:29:22;;;;;;;1.08;1.08;;;;;;;18.44;68.36;101550.78;10532814;28;20093;-77
2021/08/17 17:34:22;;;;;;;1.20;1.10;;;;;;;18.59;69.00;101567.66;10532763;28;20125;-78
2021/08/17 17:39:23;;;;;;;6.18;1.30;;;;;;;18.72;68.87;101575.69;10532892;28;20122;-79
2021/08/17 17:44:23;;;;;;;7.35;1.42;;;;;;;18.72;69.26;101585.81;10532428;28;20424;-80
2021/08/17 17:49:24;;;;;;;4.57;1.75;;;;;;;18.16;69.54;101488.38;10532584;28;20032;-79
2021/08/17 17:54:24;;;;;;;3.75;1.67;;;;;;;18.61;69.47;101573.75;10534861;28;20089;-79
2021/08/17 17:59:24;;;;;;;3.38;1.00;;;;;;;18.63;69.69;101577.06;10535119;28;20043;-79
2021/08/17 18:04:25;;;;;;;1.08;1.08;;;;;;;18.51;69.56;101560.59;10535040;28;20028;-79
2021/08/17 18:09:25;;;;;;;3.92;1.83;;;;;;;18.56;69.66;101571.69;10535497;28;20112;-80
2021/08/17 18:14:26;;;;;;;1.63;1.50;;;;;;;18.49;69.54;101567.38;10534636;28;20054;-80
2021/08/17 18:19:26;;;;;;;1.50;1.40;;;;;;;18.46;69.93;101576.09;10534910;28;20447;-80
2021/08/17 18:24:27;;;;;;;1.58;1.48;;;;;;;18.40;70.48;101564.13;10516728;28;20534;-80
2021/08/17 18:29:27;;;;;;;3.47;1.85;;;;;;;18.34;71.09;101574.13;10535010;28;20108;-81
2021/08/17 18:34:30;;;;;;;2.03;1.80;;;;;;;17.96;71.11;101516.03;10516274;28;20126;-82
2021/08/17 18:39:33;;;;;;;7.95;2.10;;;;;;;18.29;71.36;101579.47;10504001;28;20048;-81
2021/08/17 18:44:34;;;;;;;6.03;1.83;;;;;;;18.43;71.03;101574.63;10517741;28;20390;-81
2021/08/17 18:49:34;;;;;;;3.85;1.88;;;;;;;18.10;70.55;101529.34;10515654;28;20104;-81
2021/08/17 18:54:34;;;;;;;1.98;1.73;;;;;;;18.38;70.33;101584.63;10534856;28;20508;-81
2021/08/17 18:59:35;;;;;;;6.78;2.97;;;;;;;17.98;70.56;101522.16;10516474;28;20454;-81
2021/08/17 19:04:35;;;;;;;5.70;2.72;;;;;;;18.40;70.30;101577.00;10516476;28;20052;-81
2021/08/17 19:09:38;;;;;;;2.05;1.65;;;;;;;18.40;70.48;101605.25;10534522;28;20036;-81
2021/08/17 19:14:39;;;;;;;6.40;2.63;;;;;;;18.36;70.63;101593.94;10534091;28;20081;-82
2021/08/17 19:19:43;;;;;;;7.57;3.17;;;;;;;18.35;70.65;101592.25;10533504;28;20028;-82
2021/08/17 19:24:45;;;;;;;2.15;2.05;;;;;;;18.05;70.75;101545.63;10537009;28;20055;-82
2021/08/17 19:29:46;;;;;;;2.80;2.33;;;;;;;18.30;69.94;101600.34;10529724;28;20024;-82
2021/08/17 19:34:46;;;;;;;1.58;1.42;;;;;;;18.18;70.53;101601.34;10547820;28;20089;-81
2021/08/17 19:39:46;;;;;;;3.67;2.08;;;;;;;18.20;70.51;101611.03;10547487;28;20031;-81
2021/08/17 19:44:47;;;;;;;2.13;2.03;;;;;;;18.07;71.33;101600.25;10546475;28;20475;-82
2021/08/17 19:49:47;;;;;;;3.90;1.98;;;;;;;18.19;70.98;101614.84;10509080;28;20077;-82
2021/08/17 19:54:48;;;;;;;2.45;1.95;;;;;;;18.21;70.87;101618.19;10542258;28;20024;-82
2021/08/17 19:59:54;;;;;;;2.92;2.05;;;;;;;18.10;71.41;101595.13;10542014;28;20040;-82
2021/08/17 20:04:54;;;;;;;4.90;2.17;;;;;;;18.17;71.19;101616.97;10541840;28;20036;-82
2021/08/17 20:09:54;;;;;;;1.60;1.50;;;;;;;18.07;71.01;101619.41;10542102;28;20099;-82
2021/08/17 20:14:55;;;;;;;3.15;2.72;;;;;;;17.81;70.93;101602.22;10523317;28;20392;-82
2021/08/17 20:19:55;;;;;;;5.07;2.25;;;;;;;17.79;71.29;101604.34;10522886;28;20127;-82
2021/08/17 20:24:56;;;;;;;2.13;2.03;;;;;;;17.77;70.91;101608.38;10498364;28;20123;-82
2021/08/17 20:29:56;;;;;;;3.35;2.20;;;;;;;17.92;71.12;101624.44;10499662;28;20059;-81
2021/08/17 20:34:57;;;;;;;6.00;2.72;;;;;;;17.95;71.59;101610.28;10499648;28;20134;-82
2021/08/17 20:39:57;;;;;;;4.45;3.08;;;;;;;18.04;70.85;101600.69;10491942;28;20070;-82
2021/08/17 20:44:58;;;;;;;5.90;3.83;;;;;;;18.15;71.14;101610.88;10491350;28;20048;-82
2021/08/17 20:49:58;;;;;;;3.10;2.83;;;;;;;18.11;70.83;101610.50;10491894;28;20467;-82
2021/08/17 20:54:58;;;;;;;3.85;3.45;;;;;;;18.25;71.26;101621.28;10492256;28;20032;-82
2021/08/17 20:59:59;;;;;;;4.70;3.28;;;;;;;17.94;70.74;101562.88;10490400;28;20119;-82
2021/08/17 21:04:59;;;;;;;6.85;5.45;;;;;;;18.28;70.89;101613.47;10491646;28;20064;-82
2021/08/17 21:10:02;;;;;;;10.20;4.03;;;;;;;18.34;70.51;101626.22;10473233;28;20454;-82
2021/08/17 21:15:03;;;;;;;3.58;3.22;;;;;;;17.91;70.06;101560.59;10489525;28;20028;-82
2021/08/17 21:20:06;;;;;;;9.63;3.65;;;;;;;18.28;70.45;101621.69;10490079;28;20094;-82
2021/08/17 21:25:07;;;;;;;9.60;5.32;;;;;;;17.99;70.60;101570.38;10521060;28;20055;-82
2021/08/17 21:30:09;;;;;;;10.40;5.03;;;;;;;18.31;70.33;101612.13;10497298;28;20047;-84
2021/08/17 21:35:10;;;;;;;4.85;2.65;;;;;;;18.30;70.41;101621.44;10532242;28;20420;-83
2021/08/17 21:40:11;;;;;;;8.68;3.03;;;;;;;18.19;70.54;101597.53;10514186;28;20038;-83
2021/08/17 21:45:11;;;;;;;10.20;3.67;;;;;;;18.38;70.29;101617.53;10513631;28;20039;-83
2021/08/17 21:50:11;;;;;;;3.75;3.33;;;;;;;18.34;70.68;101625.38;10531661;28;20044;-83
2021/08/17 21:55:13;;;;;;;3.47;2.38;;;;;;;18.08;70.82;101572.59;10513928;28;20081;-83
2021/08/17 22:00:15;;;;;;;4.78;2.20;;;;;;;18.31;70.73;101606.66;10534746;28;20043;-82
2021/08/17 22:05:16;;;;;;;2.90;2.67;;;;;;;18.38;70.87;101617.53;10513224;28;20054;-83
2021/08/17 22:10:16;;;;;;;5.50;3.30;;;;;;;18.41;70.64;101620.66;10532816;28;20483;-83
2021/08/17 22:15:17;;;;;;;5.97;3.55;;;;;;;18.43;70.67;101624.00;10535489;28;20073;-83
2021/08/17 22:20:18;;;;;;;4.78;3.28;;;;;;;18.42;70.83;101616.84;10516771;28;20027;-82
2021/08/17 22:25:19;;;;;;;11.82;3.72;;;;;;;18.34;71.09;101607.03;10535561;28;20175;-83
2021/08/17 22:30:22;;;;;;;12.32;4.32;;;;;;;18.46;70.57;101619.97;10535792;28;20035;-83
2021/08/17 22:35:23;;;;;;;7.47;3.25;;;;;;;18.53;70.53;101631.66;10517208;28;20047;-82
2021/08/17 22:40:23;;;;;;;4.38;2.78;;;;;;;18.51;70.67;101622.84;10513125;28;20097;-83
2021/08/17 22:45:24;;;;;;;2.72;2.50;;;;;;;18.52;70.25;101624.53;10512999;28;20059;-83
2021/08/17 22:50:24;;;;;;;2.40;2.22;;;;;;;18.51;70.56;101625.59;10511987;28;20070;-83
2021/08/17 22:55:25;;;;;;;2.92;2.42;;;;;;;18.45;70.35;101605.41;10532259;28;20047;-83
2021/08/17 23:00:25;;;;;;;9.00;2.85;;;;;;;18.55;70.47;101627.63;10533158;28;20044;-83